sensor_id;sensor_type;location;lat;lon;timestamp;P1;durP1;ratioP1;P2;durP2;ratioP2
25667;SDS011;18003;-33.830;151.202;2024-01-07T00:01:57;10.82;;;4.22;;
25667;SDS011;18003;-33.830;151.202;2024-01-07T00:04:27;11.25;;;3.87;;
25667;SDS011;18003;-33.830;151.202;2024-01-07T00:06:56;11.73;;;4.17;;
25667;SDS011;18003;-33.830;151.202;2024-01-07T00:09:26;9.18;;;3.60;;
25667;SDS011;18003;-33.830;151.202;2024-01-07T00:12:01;8.10;;;3.70;;
25667;SDS011;18003;-33.830;151.202;2024-01-07T00:14:33;9.63;;;4.05;;
25667;SDS011;18003;-33.830;151.202;2024-01-07T00:17:03;8.60;;;3.60;;
25667;SDS011;18003;-33.830;151.202;2024-01-07T00:19:37;9.58;;;3.92;;
25667;SDS011;18003;-33.830;151.202;2024-01-07T00:22:07;12.00;;;3.60;;
25667;SDS011;18003;-33.830;151.202;2024-01-07T00:24:36;7.35;;;3.50;;
25667;SDS011;18003;-33.830;151.202;2024-01-07T00:27:06;16.00;;;3.95;;
25667;SDS011;18003;-33.830;151.202;2024-01-07T00:29:36;8.48;;;3.70;;
25667;SDS011;18003;-33.830;151.202;2024-01-07T00:32:08;10.43;;;3.75;;
25667;SDS011;18003;-33.830;151.202;2024-01-07T00:34:38;9.73;;;4.15;;
25667;SDS011;18003;-33.830;151.202;2024-01-07T00:37:08;13.30;;;4.05;;
25667;SDS011;18003;-33.830;151.202;2024-01-07T00:39:37;12.78;;;4.30;;
25667;SDS011;18003;-33.830;151.202;2024-01-07T00:42:08;10.55;;;3.95;;
25667;SDS011;18003;-33.830;151.202;2024-01-07T00:50:15;13.72;;;3.90;;
25667;SDS011;18003;-33.830;151.202;2024-01-07T00:52:44;11.75;;;3.67;;
25667;SDS011;18003;-33.830;151.202;2024-01-07T00:55:14;9.10;;;3.87;;
25667;SDS011;18003;-33.830;151.202;2024-01-07T00:57:44;11.55;;;4.03;;
25667;SDS011;18003;-33.830;151.202;2024-01-07T01:00:14;10.23;;;3.72;;
25667;SDS011;18003;-33.830;151.202;2024-01-07T01:02:45;17.85;;;4.20;;
25667;SDS011;18003;-33.830;151.202;2024-01-07T01:05:15;12.40;;;4.30;;
25667;SDS011;18003;-33.830;151.202;2024-01-07T01:07:45;10.10;;;3.80;;
25667;SDS011;18003;-33.830;151.202;2024-01-07T01:13:09;11.05;;;3.77;;
25667;SDS011;18003;-33.830;151.202;2024-01-07T01:15:39;8.68;;;3.50;;
25667;SDS011;18003;-33.830;151.202;2024-01-07T01:18:09;12.20;;;4.00;;
25667;SDS011;18003;-33.830;151.202;2024-01-07T01:20:39;9.23;;;4.35;;
25667;SDS011;18003;-33.830;151.202;2024-01-07T01:23:08;12.20;;;4.03;;
25667;SDS011;18003;-33.830;151.202;2024-01-07T01:25:38;9.13;;;4.12;;
25667;SDS011;18003;-33.830;151.202;2024-01-07T01:28:08;9.48;;;4.45;;
25667;SDS011;18003;-33.830;151.202;2024-01-07T01:30:47;14.05;;;4.78;;
25667;SDS011;18003;-33.830;151.202;2024-01-07T01:36:11;53.05;;;6.53;;
25667;SDS011;18003;-33.830;151.202;2024-01-07T01:38:41;28.83;;;4.62;;
25667;SDS011;18003;-33.830;151.202;2024-01-07T01:41:12;28.73;;;5.53;;
25667;SDS011;18003;-33.830;151.202;2024-01-07T01:43:42;16.42;;;4.15;;
25667;SDS011;18003;-33.830;151.202;2024-01-07T01:46:11;13.10;;;4.20;;
25667;SDS011;18003;-33.830;151.202;2024-01-07T01:48:42;11.57;;;4.00;;
25667;SDS011;18003;-33.830;151.202;2024-01-07T01:51:12;10.90;;;4.05;;
25667;SDS011;18003;-33.830;151.202;2024-01-07T01:53:44;12.45;;;4.08;;
25667;SDS011;18003;-33.830;151.202;2024-01-07T01:56:15;12.93;;;4.30;;
25667;SDS011;18003;-33.830;151.202;2024-01-07T01:58:47;15.18;;;4.10;;
25667;SDS011;18003;-33.830;151.202;2024-01-07T02:01:17;9.95;;;4.10;;
25667;SDS011;18003;-33.830;151.202;2024-01-07T02:03:47;11.45;;;4.05;;
25667;SDS011;18003;-33.830;151.202;2024-01-07T02:06:18;10.63;;;4.65;;
25667;SDS011;18003;-33.830;151.202;2024-01-07T02:08:51;10.05;;;4.10;;
25667;SDS011;18003;-33.830;151.202;2024-01-07T02:11:20;13.25;;;4.65;;
25667;SDS011;18003;-33.830;151.202;2024-01-07T02:13:50;11.35;;;4.37;;
25667;SDS011;18003;-33.830;151.202;2024-01-07T02:16:20;10.35;;;4.58;;
25667;SDS011;18003;-33.830;151.202;2024-01-07T02:18:50;11.60;;;4.90;;
25667;SDS011;18003;-33.830;151.202;2024-01-07T02:21:20;8.95;;;4.17;;
25667;SDS011;18003;-33.830;151.202;2024-01-07T02:23:50;12.68;;;4.53;;
25667;SDS011;18003;-33.830;151.202;2024-01-07T02:26:19;11.05;;;4.17;;
25667;SDS011;18003;-33.830;151.202;2024-01-07T02:28:49;12.58;;;4.42;;
25667;SDS011;18003;-33.830;151.202;2024-01-07T02:31:19;11.45;;;3.55;;
25667;SDS011;18003;-33.830;151.202;2024-01-07T02:33:49;11.30;;;4.05;;
25667;SDS011;18003;-33.830;151.202;2024-01-07T02:36:18;11.68;;;4.47;;
25667;SDS011;18003;-33.830;151.202;2024-01-07T02:41:37;11.12;;;3.83;;
25667;SDS011;18003;-33.830;151.202;2024-01-07T02:44:06;10.45;;;3.85;;
25667;SDS011;18003;-33.830;151.202;2024-01-07T02:55:12;11.53;;;4.20;;
25667;SDS011;18003;-33.830;151.202;2024-01-07T02:57:42;13.03;;;4.45;;
25667;SDS011;18003;-33.830;151.202;2024-01-07T03:00:12;12.00;;;4.70;;
25667;SDS011;18003;-33.830;151.202;2024-01-07T03:02:42;11.90;;;4.97;;
25667;SDS011;18003;-33.830;151.202;2024-01-07T03:11:23;13.45;;;4.08;;
25667;SDS011;18003;-33.830;151.202;2024-01-07T03:25:42;19.00;;;3.60;;
25667;SDS011;18003;-33.830;151.202;2024-01-07T03:28:12;8.60;;;3.37;;
25667;SDS011;18003;-33.830;151.202;2024-01-07T03:33:43;10.65;;;4.33;;
25667;SDS011;18003;-33.830;151.202;2024-01-07T03:36:13;13.98;;;4.12;;
25667;SDS011;18003;-33.830;151.202;2024-01-07T03:38:43;13.43;;;3.90;;
25667;SDS011;18003;-33.830;151.202;2024-01-07T03:41:21;7.47;;;3.52;;
25667;SDS011;18003;-33.830;151.202;2024-01-07T03:43:47;13.68;;;4.00;;
25667;SDS011;18003;-33.830;151.202;2024-01-07T03:46:17;11.55;;;4.40;;
25667;SDS011;18003;-33.830;151.202;2024-01-07T03:48:47;13.88;;;4.65;;
25667;SDS011;18003;-33.830;151.202;2024-01-07T03:51:17;12.78;;;5.08;;
25667;SDS011;18003;-33.830;151.202;2024-01-07T03:53:46;10.75;;;4.67;;
25667;SDS011;18003;-33.830;151.202;2024-01-07T03:56:16;9.60;;;4.28;;
25667;SDS011;18003;-33.830;151.202;2024-01-07T03:58:46;9.35;;;4.20;;
25667;SDS011;18003;-33.830;151.202;2024-01-07T04:01:16;14.58;;;4.70;;
25667;SDS011;18003;-33.830;151.202;2024-01-07T04:03:46;13.43;;;4.45;;
25667;SDS011;18003;-33.830;151.202;2024-01-07T04:06:15;17.00;;;4.03;;
25667;SDS011;18003;-33.830;151.202;2024-01-07T04:08:45;13.58;;;4.90;;
25667;SDS011;18003;-33.830;151.202;2024-01-07T04:11:15;13.35;;;4.95;;
25667;SDS011;18003;-33.830;151.202;2024-01-07T04:13:45;12.13;;;4.47;;
25667;SDS011;18003;-33.830;151.202;2024-01-07T04:16:18;12.20;;;4.62;;
25667;SDS011;18003;-33.830;151.202;2024-01-07T04:18:48;8.90;;;4.35;;
25667;SDS011;18003;-33.830;151.202;2024-01-07T04:21:17;18.27;;;4.75;;
25667;SDS011;18003;-33.830;151.202;2024-01-07T04:23:47;14.05;;;4.47;;
25667;SDS011;18003;-33.830;151.202;2024-01-07T04:26:17;11.65;;;4.30;;
25667;SDS011;18003;-33.830;151.202;2024-01-07T04:28:47;13.62;;;4.60;;
25667;SDS011;18003;-33.830;151.202;2024-01-07T04:31:17;9.85;;;4.60;;
25667;SDS011;18003;-33.830;151.202;2024-01-07T04:33:46;10.72;;;4.40;;
25667;SDS011;18003;-33.830;151.202;2024-01-07T04:36:16;13.83;;;4.80;;
25667;SDS011;18003;-33.830;151.202;2024-01-07T04:38:46;12.23;;;5.03;;
25667;SDS011;18003;-33.830;151.202;2024-01-07T04:41:16;9.00;;;4.00;;
25667;SDS011;18003;-33.830;151.202;2024-01-07T04:43:46;23.62;;;5.15;;
25667;SDS011;18003;-33.830;151.202;2024-01-07T04:49:29;15.15;;;4.67;;
25667;SDS011;18003;-33.830;151.202;2024-01-07T04:51:59;10.85;;;4.72;;
25667;SDS011;18003;-33.830;151.202;2024-01-07T04:54:29;13.08;;;4.60;;
25667;SDS011;18003;-33.830;151.202;2024-01-07T04:56:59;13.50;;;5.28;;
25667;SDS011;18003;-33.830;151.202;2024-01-07T04:59:32;14.23;;;5.50;;
25667;SDS011;18003;-33.830;151.202;2024-01-07T05:02:19;12.95;;;5.10;;
25667;SDS011;18003;-33.830;151.202;2024-01-07T05:04:50;13.72;;;4.97;;
25667;SDS011;18003;-33.830;151.202;2024-01-07T05:07:27;11.93;;;5.42;;
25667;SDS011;18003;-33.830;151.202;2024-01-07T05:09:57;13.25;;;5.30;;
25667;SDS011;18003;-33.830;151.202;2024-01-07T05:12:27;14.73;;;5.22;;
25667;SDS011;18003;-33.830;151.202;2024-01-07T05:14:57;10.35;;;5.30;;
25667;SDS011;18003;-33.830;151.202;2024-01-07T05:17:28;12.82;;;5.47;;
25667;SDS011;18003;-33.830;151.202;2024-01-07T05:19:58;11.45;;;5.00;;
25667;SDS011;18003;-33.830;151.202;2024-01-07T05:22:28;7.40;;;4.85;;
25667;SDS011;18003;-33.830;151.202;2024-01-07T05:25:04;17.37;;;5.42;;
25667;SDS011;18003;-33.830;151.202;2024-01-07T05:27:29;13.05;;;5.15;;
25667;SDS011;18003;-33.830;151.202;2024-01-07T05:29:59;9.80;;;4.97;;
25667;SDS011;18003;-33.830;151.202;2024-01-07T05:32:29;11.48;;;5.90;;
25667;SDS011;18003;-33.830;151.202;2024-01-07T05:34:59;11.93;;;5.15;;
25667;SDS011;18003;-33.830;151.202;2024-01-07T05:37:30;9.58;;;4.60;;
25667;SDS011;18003;-33.830;151.202;2024-01-07T05:40:00;17.57;;;5.45;;
25667;SDS011;18003;-33.830;151.202;2024-01-07T05:42:34;15.10;;;5.22;;
25667;SDS011;18003;-33.830;151.202;2024-01-07T05:45:04;10.78;;;5.30;;
25667;SDS011;18003;-33.830;151.202;2024-01-07T05:47:34;13.80;;;5.37;;
25667;SDS011;18003;-33.830;151.202;2024-01-07T05:50:08;12.63;;;5.50;;
25667;SDS011;18003;-33.830;151.202;2024-01-07T05:55:08;12.18;;;5.92;;
25667;SDS011;18003;-33.830;151.202;2024-01-07T05:57:42;11.00;;;5.92;;
25667;SDS011;18003;-33.830;151.202;2024-01-07T06:00:27;11.25;;;5.00;;
25667;SDS011;18003;-33.830;151.202;2024-01-07T06:05:39;10.95;;;4.95;;
25667;SDS011;18003;-33.830;151.202;2024-01-07T06:08:09;13.70;;;5.22;;
25667;SDS011;18003;-33.830;151.202;2024-01-07T06:10:42;11.37;;;4.90;;
25667;SDS011;18003;-33.830;151.202;2024-01-07T06:13:16;10.53;;;5.15;;
25667;SDS011;18003;-33.830;151.202;2024-01-07T06:16:03;9.00;;;4.78;;
25667;SDS011;18003;-33.830;151.202;2024-01-07T06:18:28;9.43;;;4.92;;
25667;SDS011;18003;-33.830;151.202;2024-01-07T06:21:07;12.90;;;4.90;;
25667;SDS011;18003;-33.830;151.202;2024-01-07T21:52:10;11.70;;;5.28;;
25667;SDS011;18003;-33.830;151.202;2024-01-07T21:54:40;17.55;;;6.22;;
25667;SDS011;18003;-33.830;151.202;2024-01-07T21:57:10;16.55;;;5.85;;
25667;SDS011;18003;-33.830;151.202;2024-01-07T21:59:40;15.20;;;5.12;;
25667;SDS011;18003;-33.830;151.202;2024-01-07T22:02:10;12.13;;;5.80;;
25667;SDS011;18003;-33.830;151.202;2024-01-07T22:04:40;11.30;;;5.65;;
25667;SDS011;18003;-33.830;151.202;2024-01-07T22:07:10;9.93;;;5.25;;
25667;SDS011;18003;-33.830;151.202;2024-01-07T22:09:40;8.95;;;5.22;;
25667;SDS011;18003;-33.830;151.202;2024-01-07T22:12:10;8.40;;;4.75;;
25667;SDS011;18003;-33.830;151.202;2024-01-07T22:14:41;10.23;;;4.97;;
25667;SDS011;18003;-33.830;151.202;2024-01-07T22:17:11;10.38;;;5.10;;
25667;SDS011;18003;-33.830;151.202;2024-01-07T22:19:41;11.60;;;4.80;;
25667;SDS011;18003;-33.830;151.202;2024-01-07T22:22:11;8.80;;;5.22;;
25667;SDS011;18003;-33.830;151.202;2024-01-07T22:24:41;16.05;;;5.62;;
25667;SDS011;18003;-33.830;151.202;2024-01-07T22:27:12;12.35;;;5.03;;
25667;SDS011;18003;-33.830;151.202;2024-01-07T22:29:42;12.20;;;5.30;;
25667;SDS011;18003;-33.830;151.202;2024-01-07T22:32:12;15.45;;;5.40;;
25667;SDS011;18003;-33.830;151.202;2024-01-07T22:34:42;14.93;;;5.65;;
25667;SDS011;18003;-33.830;151.202;2024-01-07T22:37:12;18.77;;;7.42;;
25667;SDS011;18003;-33.830;151.202;2024-01-07T22:39:46;13.10;;;6.30;;
25667;SDS011;18003;-33.830;151.202;2024-01-07T22:53:11;12.93;;;5.05;;
25667;SDS011;18003;-33.830;151.202;2024-01-07T22:55:41;8.55;;;4.67;;
25667;SDS011;18003;-33.830;151.202;2024-01-07T22:58:27;9.33;;;4.20;;
25667;SDS011;18003;-33.830;151.202;2024-01-07T23:00:43;10.45;;;4.67;;
25667;SDS011;18003;-33.830;151.202;2024-01-07T23:03:14;17.77;;;4.47;;
25667;SDS011;18003;-33.830;151.202;2024-01-07T23:05:44;11.18;;;4.85;;
25667;SDS011;18003;-33.830;151.202;2024-01-07T23:08:18;11.28;;;4.45;;
25667;SDS011;18003;-33.830;151.202;2024-01-07T23:10:46;10.65;;;4.40;;
25667;SDS011;18003;-33.830;151.202;2024-01-07T23:13:20;8.43;;;4.67;;
25667;SDS011;18003;-33.830;151.202;2024-01-07T23:15:50;7.70;;;3.80;;
25667;SDS011;18003;-33.830;151.202;2024-01-07T23:18:20;8.60;;;4.30;;
25667;SDS011;18003;-33.830;151.202;2024-01-07T23:20:50;8.75;;;3.98;;
25667;SDS011;18003;-33.830;151.202;2024-01-07T23:23:20;9.20;;;3.98;;
25667;SDS011;18003;-33.830;151.202;2024-01-07T23:25:51;8.73;;;3.45;;
25667;SDS011;18003;-33.830;151.202;2024-01-07T23:28:21;12.55;;;4.05;;
25667;SDS011;18003;-33.830;151.202;2024-01-07T23:31:33;6.87;;;4.22;;
25667;SDS011;18003;-33.830;151.202;2024-01-07T23:33:43;6.80;;;3.90;;
25667;SDS011;18003;-33.830;151.202;2024-01-07T23:36:13;10.03;;;4.40;;
25667;SDS011;18003;-33.830;151.202;2024-01-07T23:38:43;8.75;;;4.10;;
25667;SDS011;18003;-33.830;151.202;2024-01-07T23:41:13;7.60;;;4.35;;
25667;SDS011;18003;-33.830;151.202;2024-01-07T23:43:43;12.60;;;4.60;;
25667;SDS011;18003;-33.830;151.202;2024-01-07T23:46:14;6.90;;;3.52;;
25667;SDS011;18003;-33.830;151.202;2024-01-07T23:48:44;6.92;;;3.70;;
25667;SDS011;18003;-33.830;151.202;2024-01-07T23:51:14;7.17;;;4.08;;
25667;SDS011;18003;-33.830;151.202;2024-01-07T23:53:48;7.90;;;4.10;;
